Time;durP1;ratioP1;P1;durP2;ratioP2;P2;SDS_P1;SDS_P2;PMS_P1;PMS_P2;Temp;Humidity;BMP_temperature;BMP_pressure;BME280_temperature;BME280_humidity;BME280_pressure;Samples;Min_cycle;Max_cycle;Signal;HPM_P1;HPM_P2
2023/04/30 17:07:27;;;;;;;1.90;1.17;;;26.40;46.10;;;;;;5109004;27;20668;-60
2023/04/30 17:09:53;;;;;;;2.25;1.50;;;24.90;48.00;;;;;;5094826;28;20038;-66
2023/04/30 17:12:19;;;;;;;2.60;1.20;;;23.90;49.80;;;;;;5089100;28;20476;-65
2023/04/30 17:14:44;;;;;;;2.17;1.00;;;22.90;51.00;;;;;;5087607;28;20027;-62
2023/04/30 17:17:10;;;;;;;1.52;0.90;;;22.10;52.50;;;;;;5089663;28;20472;-63
2023/04/30 17:19:35;;;;;;;2.00;1.20;;;21.40;53.70;;;;;;5085205;28;20019;-64
2023/04/30 17:22:02;;;;;;;4.10;1.50;;;20.80;55.10;;;;;;5089002;28;20040;-62
2023/04/30 17:24:27;;;;;;;2.83;1.60;;;20.40;56.60;;;;;;5088876;28;20034;-62
2023/04/30 17:26:53;;;;;;;3.83;1.30;;;20.10;57.50;;;;;;5087031;28;20036;-62
2023/04/30 17:29:19;;;;;;;2.33;1.20;;;20.00;58.40;;;;;;5089164;28;20165;-63
2023/04/30 17:31:45;;;;;;;1.90;1.13;;;20.10;58.90;;;;;;5091741;28;20024;-62
2023/04/30 17:34:12;;;;;;;1.17;1.08;;;20.20;59.00;;;;;;5090789;28;20021;-63
2023/04/30 17:36:37;;;;;;;3.15;1.40;;;20.30;58.80;;;;;;5102708;28;20029;-63
2023/04/30 17:39:04;;;;;;;3.05;1.58;;;20.40;59.00;;;;;;5106199;28;20024;-61
2023/04/30 17:41:31;;;;;;;3.28;1.50;;;20.50;58.60;;;;;;5108388;28;20051;-65
2023/04/30 17:43:56;;;;;;;4.15;1.67;;;20.70;58.60;;;;;;5109273;28;20016;-61
2023/04/30 17:46:22;;;;;;;3.58;2.20;;;20.90;58.60;;;;;;5108717;28;20380;-62
2023/04/30 17:48:48;;;;;;;2.08;1.50;;;21.40;58.20;;;;;;5106953;28;20022;-63
2023/04/30 17:51:13;;;;;;;5.93;2.75;;;21.80;56.90;;;;;;5109427;28;20114;-62
2023/04/30 17:53:39;;;;;;;3.72;1.58;;;22.40;55.80;;;;;;5108870;28;20077;-64
2023/04/30 17:56:05;;;;;;;2.78;1.40;;;22.80;54.70;;;;;;5108517;28;20016;-62
2023/04/30 17:58:31;;;;;;;1.73;1.08;;;22.90;54.30;;;;;;5102373;28;20032;-63
2023/04/30 18:00:59;;;;;;;2.42;1.50;;;22.60;54.50;;;;;;5099806;28;20038;-61
2023/04/30 18:03:25;;;;;;;3.58;1.77;;;22.20;55.00;;;;;;5101923;28;20085;-61
2023/04/30 18:05:50;;;;;;;3.85;2.20;;;21.70;56.00;;;;;;5108636;28;20396;-62
2023/04/30 18:08:16;;;;;;;3.10;1.63;;;21.30;56.90;;;;;;5108234;28;20062;-63
2023/04/30 18:10:42;;;;;;;3.78;1.35;;;20.80;57.80;;;;;;5101120;28;20468;-61
2023/04/30 18:13:09;;;;;;;9.38;4.82;;;20.50;58.90;;;;;;5107321;28;20558;-62
2023/04/30 18:15:34;;;;;;;3.92;2.10;;;20.10;59.70;;;;;;5104175;28;20385;-63
2023/04/30 18:18:00;;;;;;;5.03;2.22;;;19.80;60.60;;;;;;5097303;28;20065;-61
2023/04/30 18:20:26;;;;;;;7.05;2.42;;;19.50;61.20;;;;;;5094464;28;20396;-62
2023/04/30 18:22:52;;;;;;;6.57;2.67;;;19.20;61.80;;;;;;5094198;28;20094;-62
2023/04/30 18:25:18;;;;;;;3.85;1.92;;;19.00;62.40;;;;;;5094410;28;20844;-61
2023/04/30 18:27:43;;;;;;;3.28;2.10;;;18.70;63.00;;;;;;5094994;28;20032;-64
2023/04/30 18:30:10;;;;;;;2.65;1.73;;;18.60;63.60;;;;;;5093838;28;20008;-61
2023/04/30 18:32:36;;;;;;;3.70;1.75;;;18.40;64.20;;;;;;5094126;28;20031;-60
2023/04/30 18:35:03;;;;;;;3.75;1.80;;;18.20;64.90;;;;;;5094717;28;20012;-61
2023/04/30 18:37:29;;;;;;;3.50;1.50;;;18.10;65.70;;;;;;5085740;28;20545;-60
2023/04/30 18:39:55;;;;;;;2.95;1.50;;;17.90;65.70;;;;;;5073416;28;20056;-61
2023/04/30 18:42:23;;;;;;;2.78;1.58;;;17.80;66.10;;;;;;5073442;28;20027;-61
2023/04/30 18:44:49;;;;;;;2.50;1.30;;;17.60;66.30;;;;;;5073134;28;20401;-60
2023/04/30 18:47:15;;;;;;;2.13;1.38;;;17.50;66.60;;;;;;5073901;28;20040;-60
2023/04/30 18:49:42;;;;;;;8.02;3.58;;;17.40;67.20;;;;;;5072439;28;20021;-61
2023/04/30 18:52:08;;;;;;;6.45;2.50;;;17.20;67.40;;;;;;5072346;28;20116;-62
2023/04/30 18:54:34;;;;;;;5.95;2.72;;;17.10;67.80;;;;;;5072338;28;20119;-60
2023/04/30 18:56:59;;;;;;;5.72;2.45;;;17.00;68.10;;;;;;5073997;28;20135;-63
2023/04/30 18:59:27;;;;;;;2.80;1.40;;;16.90;68.90;;;;;;5073105;28;20059;-62
2023/04/30 19:01:53;;;;;;;2.50;1.38;;;16.70;69.60;;;;;;5074391;28;20028;-62
2023/04/30 19:04:19;;;;;;;4.88;1.60;;;16.50;70.30;;;;;;5073612;28;20392;-63
2023/04/30 19:06:46;;;;;;;2.85;1.52;;;16.40;71.50;;;;;;5073298;28;20052;-61
2023/04/30 19:09:14;;;;;;;3.17;1.73;;;16.20;72.20;;;;;;5073043;28;20020;-61
2023/04/30 19:11:40;;;;;;;4.10;1.60;;;16.00;72.80;;;;;;5072536;28;20033;-61
2023/04/30 19:14:05;;;;;;;2.42;1.50;;;15.90;73.50;;;;;;5073605;28;20108;-63
2023/04/30 19:16:31;;;;;;;3.50;1.80;;;15.80;74.20;;;;;;5073219;28;20107;-64
2023/04/30 19:18:57;;;;;;;5.20;1.50;;;15.70;74.80;;;;;;5072970;28;20038;-66
2023/04/30 19:21:22;;;;;;;1.63;1.40;;;15.60;75.40;;;;;;5071930;28;20111;-64
2023/04/30 19:23:48;;;;;;;1.85;1.50;;;15.50;76.10;;;;;;5073525;28;20073;-67
2023/04/30 19:26:14;;;;;;;1.98;1.30;;;15.40;76.60;;;;;;5073007;28;20489;-62
2023/04/30 19:28:40;;;;;;;3.63;1.67;;;15.40;77.10;;;;;;5072201;28;20024;-61
2023/04/30 19:31:05;;;;;;;3.55;1.65;;;15.30;77.60;;;;;;5071568;28;20012;-61
2023/04/30 19:33:36;;;;;;;3.95;1.50;;;15.20;78.10;;;;;;5070920;28;20385;-61
2023/04/30 19:36:02;;;;;;;4.43;1.88;;;15.10;78.50;;;;;;5072883;28;20016;-61
